aviador You're here:

KMPV Decoded Metar

MONTPELIER in VT, USA
Report Time2018-04-24 17:51:00
UTC Time2018-04-24 18:30:47
Flight Rules vfr VFR
Wind200° at 08 Gusting to 14 kt
W.Decomp.*RWY 23: 7.8 kt HW 1.9 kt LCW
RWY 17: 5.6 kt HW 5.8 kt RCW
W.Rank200° ranks 10
Current wind is above 200° avg. (6.1)
Visibility9999 m
Phenomena:N/A
Clouds:N/A
Expected CloudBase > 10,400 ft AGL from Temp-Dew spread
CeilingNone
Temp19°C (ISA +6)
Dew Point-7°C (17% RH)
AAT13.3°C
QNH1024 hPa
Density Alt1,542 ft
Elevation1,125 ft
Report Wrong Elevation
Raw Report
KMPV 241751Z AUTO 20008G14KT 10SM CLR 19/M07 A3024 RMK AO2 SLP245
T01941067 10200 20067 57026 $=

Extra information for KMPV:More info

Metar Taf Metar & Taf Last 4 Metars F.Rules Stats Wind Profile Meteogram Temp Stats Airport Information Weather charts Add Link Nearby VenuesMetar ALERT Operation Metar Decoded Social comments

AIRNAV info for KMPV